sensor_id;sensor_type;location;lat;lon;timestamp;P1;durP1;ratioP1;P2;durP2;ratioP2
13238;SDS011;6686;51.292;4.166;2023-07-13T00:01:30;6.50;;;2.73;;
13238;SDS011;6686;51.292;4.166;2023-07-13T00:04:17;11.70;;;3.00;;
13238;SDS011;6686;51.292;4.166;2023-07-13T00:07:02;8.13;;;3.10;;
13238;SDS011;6686;51.292;4.166;2023-07-13T00:09:48;5.70;;;2.50;;
13238;SDS011;6686;51.292;4.166;2023-07-13T00:12:35;6.80;;;2.97;;
13238;SDS011;6686;51.292;4.166;2023-07-13T00:15:22;6.07;;;2.73;;
13238;SDS011;6686;51.292;4.166;2023-07-13T00:18:06;9.33;;;3.07;;
13238;SDS011;6686;51.292;4.166;2023-07-13T00:20:52;7.17;;;2.50;;
13238;SDS011;6686;51.292;4.166;2023-07-13T00:23:38;7.30;;;2.73;;
13238;SDS011;6686;51.292;4.166;2023-07-13T00:26:24;7.83;;;2.73;;
13238;SDS011;6686;51.292;4.166;2023-07-13T00:29:10;11.52;;;3.80;;
13238;SDS011;6686;51.292;4.166;2023-07-13T00:31:56;12.33;;;3.67;;
13238;SDS011;6686;51.292;4.166;2023-07-13T00:34:41;12.93;;;3.50;;
13238;SDS011;6686;51.292;4.166;2023-07-13T00:37:27;8.60;;;3.47;;
13238;SDS011;6686;51.292;4.166;2023-07-13T00:40:13;9.53;;;3.60;;
13238;SDS011;6686;51.292;4.166;2023-07-13T00:42:59;12.40;;;4.93;;
13238;SDS011;6686;51.292;4.166;2023-07-13T00:48:32;13.40;;;3.50;;
13238;SDS011;6686;51.292;4.166;2023-07-13T00:51:18;14.77;;;3.93;;
13238;SDS011;6686;51.292;4.166;2023-07-13T00:54:04;11.70;;;3.83;;
13238;SDS011;6686;51.292;4.166;2023-07-13T00:56:50;11.10;;;3.87;;
13238;SDS011;6686;51.292;4.166;2023-07-13T00:59:35;13.30;;;3.73;;
13238;SDS011;6686;51.292;4.166;2023-07-13T01:02:21;11.57;;;3.70;;
13238;SDS011;6686;51.292;4.166;2023-07-13T01:05:10;12.73;;;4.20;;
13238;SDS011;6686;51.292;4.166;2023-07-13T01:07:56;10.93;;;4.10;;
13238;SDS011;6686;51.292;4.166;2023-07-13T01:10:50;9.57;;;3.80;;
13238;SDS011;6686;51.292;4.166;2023-07-13T01:13:37;9.90;;;3.97;;
13238;SDS011;6686;51.292;4.166;2023-07-13T01:16:27;17.63;;;4.60;;
13238;SDS011;6686;51.292;4.166;2023-07-13T01:19:16;13.63;;;4.83;;
13238;SDS011;6686;51.292;4.166;2023-07-13T01:21:58;16.30;;;4.87;;
13238;SDS011;6686;51.292;4.166;2023-07-13T01:24:45;11.75;;;4.53;;
13238;SDS011;6686;51.292;4.166;2023-07-13T01:27:30;14.30;;;4.50;;
13238;SDS011;6686;51.292;4.166;2023-07-13T01:30:16;12.60;;;4.37;;
13238;SDS011;6686;51.292;4.166;2023-07-13T01:33:02;15.43;;;4.20;;
13238;SDS011;6686;51.292;4.166;2023-07-13T01:35:48;14.80;;;4.13;;
13238;SDS011;6686;51.292;4.166;2023-07-13T01:38:34;13.87;;;4.10;;
13238;SDS011;6686;51.292;4.166;2023-07-13T01:41:20;9.90;;;4.40;;
13238;SDS011;6686;51.292;4.166;2023-07-13T01:44:06;13.67;;;4.10;;
13238;SDS011;6686;51.292;4.166;2023-07-13T01:46:52;10.20;;;4.43;;
13238;SDS011;6686;51.292;4.166;2023-07-13T01:49:41;12.13;;;4.50;;
13238;SDS011;6686;51.292;4.166;2023-07-13T01:52:28;13.23;;;5.10;;
13238;SDS011;6686;51.292;4.166;2023-07-13T01:55:14;13.67;;;4.40;;
13238;SDS011;6686;51.292;4.166;2023-07-13T01:58:00;14.33;;;5.30;;
13238;SDS011;6686;51.292;4.166;2023-07-13T02:00:48;10.83;;;4.90;;
13238;SDS011;6686;51.292;4.166;2023-07-13T02:03:32;14.27;;;6.50;;
13238;SDS011;6686;51.292;4.166;2023-07-13T02:06:18;18.00;;;7.03;;
13238;SDS011;6686;51.292;4.166;2023-07-13T02:09:03;16.53;;;6.10;;
13238;SDS011;6686;51.292;4.166;2023-07-13T02:11:49;16.20;;;6.60;;
13238;SDS011;6686;51.292;4.166;2023-07-13T02:14:35;16.70;;;6.50;;
13238;SDS011;6686;51.292;4.166;2023-07-13T02:17:21;18.17;;;7.43;;
13238;SDS011;6686;51.292;4.166;2023-07-13T02:20:06;18.97;;;6.57;;
13238;SDS011;6686;51.292;4.166;2023-07-13T02:22:52;18.80;;;7.00;;
13238;SDS011;6686;51.292;4.166;2023-07-13T02:25:39;15.13;;;7.03;;
13238;SDS011;6686;51.292;4.166;2023-07-13T02:28:25;14.53;;;6.77;;
13238;SDS011;6686;51.292;4.166;2023-07-13T02:31:11;14.23;;;6.80;;
13238;SDS011;6686;51.292;4.166;2023-07-13T02:33:57;16.80;;;7.43;;
13238;SDS011;6686;51.292;4.166;2023-07-13T02:36:43;16.23;;;7.07;;
13238;SDS011;6686;51.292;4.166;2023-07-13T02:39:29;13.45;;;6.90;;
13238;SDS011;6686;51.292;4.166;2023-07-13T02:42:14;15.30;;;6.50;;
13238;SDS011;6686;51.292;4.166;2023-07-13T02:45:00;17.23;;;6.73;;
13238;SDS011;6686;51.292;4.166;2023-07-13T02:47:47;18.50;;;7.28;;
13238;SDS011;6686;51.292;4.166;2023-07-13T02:50:33;15.10;;;6.97;;
13238;SDS011;6686;51.292;4.166;2023-07-13T02:53:19;17.67;;;6.97;;
13238;SDS011;6686;51.292;4.166;2023-07-13T02:56:05;15.10;;;6.43;;
13238;SDS011;6686;51.292;4.166;2023-07-13T02:58:51;15.17;;;6.33;;
13238;SDS011;6686;51.292;4.166;2023-07-13T03:01:36;15.93;;;6.70;;
13238;SDS011;6686;51.292;4.166;2023-07-13T03:04:22;16.67;;;7.32;;
13238;SDS011;6686;51.292;4.166;2023-07-13T03:07:08;13.20;;;6.20;;
13238;SDS011;6686;51.292;4.166;2023-07-13T03:09:55;15.17;;;6.20;;
13238;SDS011;6686;51.292;4.166;2023-07-13T03:12:42;13.93;;;6.60;;
13238;SDS011;6686;51.292;4.166;2023-07-13T03:15:27;16.87;;;6.40;;
13238;SDS011;6686;51.292;4.166;2023-07-13T03:18:13;13.03;;;5.80;;
13238;SDS011;6686;51.292;4.166;2023-07-13T03:20:59;12.90;;;5.43;;
13238;SDS011;6686;51.292;4.166;2023-07-13T03:23:46;13.80;;;6.27;;
13238;SDS011;6686;51.292;4.166;2023-07-13T03:26:31;12.90;;;6.10;;
13238;SDS011;6686;51.292;4.166;2023-07-13T03:29:17;13.40;;;5.25;;
13238;SDS011;6686;51.292;4.166;2023-07-13T03:32:03;15.23;;;5.90;;
13238;SDS011;6686;51.292;4.166;2023-07-13T03:34:49;11.43;;;4.87;;
13238;SDS011;6686;51.292;4.166;2023-07-13T03:37:35;10.40;;;5.60;;
13238;SDS011;6686;51.292;4.166;2023-07-13T03:40:21;14.53;;;5.10;;
13238;SDS011;6686;51.292;4.166;2023-07-13T03:43:07;11.60;;;5.13;;
13238;SDS011;6686;51.292;4.166;2023-07-13T03:45:53;14.43;;;5.27;;
13238;SDS011;6686;51.292;4.166;2023-07-13T03:48:40;17.70;;;6.00;;
13238;SDS011;6686;51.292;4.166;2023-07-13T03:51:25;11.10;;;4.97;;
13238;SDS011;6686;51.292;4.166;2023-07-13T03:54:14;14.70;;;5.70;;
13238;SDS011;6686;51.292;4.166;2023-07-13T03:57:02;12.80;;;5.57;;
13238;SDS011;6686;51.292;4.166;2023-07-13T03:59:48;14.13;;;5.10;;
13238;SDS011;6686;51.292;4.166;2023-07-13T04:02:34;14.73;;;5.53;;
13238;SDS011;6686;51.292;4.166;2023-07-13T04:05:21;14.27;;;5.50;;
13238;SDS011;6686;51.292;4.166;2023-07-13T04:08:07;13.98;;;6.18;;
13238;SDS011;6686;51.292;4.166;2023-07-13T04:10:53;14.85;;;6.18;;
13238;SDS011;6686;51.292;4.166;2023-07-13T04:13:39;10.33;;;5.17;;
13238;SDS011;6686;51.292;4.166;2023-07-13T04:16:25;14.73;;;5.90;;
13238;SDS011;6686;51.292;4.166;2023-07-13T04:19:14;11.17;;;4.63;;
13238;SDS011;6686;51.292;4.166;2023-07-13T04:21:59;18.23;;;6.40;;
13238;SDS011;6686;51.292;4.166;2023-07-13T04:24:45;14.20;;;5.55;;
13238;SDS011;6686;51.292;4.166;2023-07-13T04:27:31;11.57;;;5.57;;
13238;SDS011;6686;51.292;4.166;2023-07-13T04:30:16;13.67;;;5.23;;
13238;SDS011;6686;51.292;4.166;2023-07-13T04:33:02;15.47;;;5.10;;
13238;SDS011;6686;51.292;4.166;2023-07-13T04:35:52;11.47;;;5.13;;
13238;SDS011;6686;51.292;4.166;2023-07-13T04:38:37;15.40;;;5.10;;
13238;SDS011;6686;51.292;4.166;2023-07-13T04:41:23;12.52;;;5.87;;
13238;SDS011;6686;51.292;4.166;2023-07-13T04:44:09;12.73;;;5.27;;
13238;SDS011;6686;51.292;4.166;2023-07-13T04:46:55;18.73;;;5.10;;
13238;SDS011;6686;51.292;4.166;2023-07-13T04:49:41;16.10;;;5.37;;
13238;SDS011;6686;51.292;4.166;2023-07-13T04:52:27;9.87;;;4.53;;
13238;SDS011;6686;51.292;4.166;2023-07-13T04:55:13;15.90;;;5.30;;
13238;SDS011;6686;51.292;4.166;2023-07-13T04:57:59;15.70;;;4.73;;
13238;SDS011;6686;51.292;4.166;2023-07-13T05:00:45;14.27;;;5.03;;
13238;SDS011;6686;51.292;4.166;2023-07-13T05:03:30;11.03;;;5.00;;
13238;SDS011;6686;51.292;4.166;2023-07-13T05:06:16;10.33;;;4.40;;
13238;SDS011;6686;51.292;4.166;2023-07-13T05:09:02;17.43;;;5.03;;
13238;SDS011;6686;51.292;4.166;2023-07-13T05:11:48;13.10;;;4.77;;
13238;SDS011;6686;51.292;4.166;2023-07-13T05:14:34;14.00;;;4.80;;
13238;SDS011;6686;51.292;4.166;2023-07-13T05:17:20;14.23;;;4.97;;
13238;SDS011;6686;51.292;4.166;2023-07-13T05:20:06;13.77;;;4.60;;
13238;SDS011;6686;51.292;4.166;2023-07-13T05:22:52;12.23;;;4.40;;
13238;SDS011;6686;51.292;4.166;2023-07-13T05:25:38;15.30;;;5.03;;
13238;SDS011;6686;51.292;4.166;2023-07-13T05:28:23;12.73;;;5.10;;
13238;SDS011;6686;51.292;4.166;2023-07-13T05:31:09;14.23;;;5.40;;
13238;SDS011;6686;51.292;4.166;2023-07-13T05:33:55;11.23;;;4.70;;
13238;SDS011;6686;51.292;4.166;2023-07-13T05:36:41;14.40;;;4.77;;
13238;SDS011;6686;51.292;4.166;2023-07-13T05:39:26;12.17;;;4.63;;
13238;SDS011;6686;51.292;4.166;2023-07-13T05:42:12;9.33;;;4.57;;
13238;SDS011;6686;51.292;4.166;2023-07-13T05:44:59;13.00;;;5.17;;
13238;SDS011;6686;51.292;4.166;2023-07-13T05:47:45;14.53;;;5.20;;
13238;SDS011;6686;51.292;4.166;2023-07-13T05:50:31;12.43;;;4.87;;
13238;SDS011;6686;51.292;4.166;2023-07-13T05:53:17;12.37;;;5.10;;
13238;SDS011;6686;51.292;4.166;2023-07-13T05:56:04;10.05;;;4.53;;
13238;SDS011;6686;51.292;4.166;2023-07-13T05:58:50;14.40;;;4.17;;
13238;SDS011;6686;51.292;4.166;2023-07-13T06:01:35;10.83;;;3.97;;
13238;SDS011;6686;51.292;4.166;2023-07-13T06:04:21;17.97;;;4.57;;
13238;SDS011;6686;51.292;4.166;2023-07-13T06:07:07;12.93;;;4.40;;
13238;SDS011;6686;51.292;4.166;2023-07-13T06:09:53;14.30;;;4.53;;
13238;SDS011;6686;51.292;4.166;2023-07-13T06:12:39;11.87;;;5.00;;
13238;SDS011;6686;51.292;4.166;2023-07-13T06:15:25;9.53;;;4.40;;
13238;SDS011;6686;51.292;4.166;2023-07-13T06:18:11;14.77;;;4.43;;
13238;SDS011;6686;51.292;4.166;2023-07-13T06:20:57;11.20;;;4.37;;
13238;SDS011;6686;51.292;4.166;2023-07-13T06:23:43;13.97;;;4.50;;
13238;SDS011;6686;51.292;4.166;2023-07-13T06:26:29;8.60;;;3.77;;
13238;SDS011;6686;51.292;4.166;2023-07-13T06:29:15;10.50;;;3.63;;
13238;SDS011;6686;51.292;4.166;2023-07-13T06:32:01;12.07;;;4.80;;
13238;SDS011;6686;51.292;4.166;2023-07-13T06:34:47;10.27;;;4.43;;
13238;SDS011;6686;51.292;4.166;2023-07-13T06:37:32;15.97;;;5.33;;
13238;SDS011;6686;51.292;4.166;2023-07-13T06:40:18;12.17;;;5.20;;
13238;SDS011;6686;51.292;4.166;2023-07-13T06:43:04;15.27;;;5.07;;
13238;SDS011;6686;51.292;4.166;2023-07-13T06:45:50;15.73;;;5.80;;
13238;SDS011;6686;51.292;4.166;2023-07-13T06:48:35;14.00;;;5.07;;
13238;SDS011;6686;51.292;4.166;2023-07-13T06:51:21;11.23;;;4.77;;
13238;SDS011;6686;51.292;4.166;2023-07-13T06:54:07;13.20;;;6.27;;
13238;SDS011;6686;51.292;4.166;2023-07-13T06:56:53;16.80;;;6.57;;
13238;SDS011;6686;51.292;4.166;2023-07-13T06:59:38;12.17;;;6.40;;
13238;SDS011;6686;51.292;4.166;2023-07-13T07:02:24;14.20;;;5.87;;
13238;SDS011;6686;51.292;4.166;2023-07-13T07:05:11;13.90;;;5.67;;
13238;SDS011;6686;51.292;4.166;2023-07-13T07:07:56;12.27;;;5.93;;
13238;SDS011;6686;51.292;4.166;2023-07-13T07:10:43;12.40;;;5.47;;
13238;SDS011;6686;51.292;4.166;2023-07-13T07:13:29;17.50;;;7.17;;
13238;SDS011;6686;51.292;4.166;2023-07-13T07:16:15;13.23;;;7.17;;
13238;SDS011;6686;51.292;4.166;2023-07-13T07:19:00;12.90;;;6.47;;
13238;SDS011;6686;51.292;4.166;2023-07-13T07:21:46;17.53;;;5.90;;
13238;SDS011;6686;51.292;4.166;2023-07-13T07:24:33;13.83;;;5.73;;
13238;SDS011;6686;51.292;4.166;2023-07-13T07:27:19;13.03;;;7.20;;
13238;SDS011;6686;51.292;4.166;2023-07-13T07:30:05;12.47;;;5.93;;
13238;SDS011;6686;51.292;4.166;2023-07-13T07:32:51;11.20;;;7.10;;
13238;SDS011;6686;51.292;4.166;2023-07-13T07:35:36;13.23;;;7.00;;
13238;SDS011;6686;51.292;4.166;2023-07-13T07:38:22;18.97;;;7.53;;
13238;SDS011;6686;51.292;4.166;2023-07-13T07:41:08;14.77;;;8.17;;
13238;SDS011;6686;51.292;4.166;2023-07-13T07:43:54;13.33;;;7.17;;
13238;SDS011;6686;51.292;4.166;2023-07-13T07:46:40;12.27;;;7.10;;
13238;SDS011;6686;51.292;4.166;2023-07-13T07:49:26;16.73;;;7.70;;
13238;SDS011;6686;51.292;4.166;2023-07-13T07:52:12;14.43;;;6.50;;
13238;SDS011;6686;51.292;4.166;2023-07-13T07:54:57;9.37;;;5.40;;
13238;SDS011;6686;51.292;4.166;2023-07-13T07:57:44;11.90;;;5.33;;
13238;SDS011;6686;51.292;4.166;2023-07-13T08:00:30;15.63;;;6.40;;
13238;SDS011;6686;51.292;4.166;2023-07-13T08:03:15;11.27;;;5.03;;
13238;SDS011;6686;51.292;4.166;2023-07-13T08:06:01;11.87;;;4.33;;
13238;SDS011;6686;51.292;4.166;2023-07-13T08:08:47;8.73;;;4.97;;
13238;SDS011;6686;51.292;4.166;2023-07-13T08:11:33;10.95;;;4.93;;
13238;SDS011;6686;51.292;4.166;2023-07-13T08:14:19;10.47;;;4.17;;
13238;SDS011;6686;51.292;4.166;2023-07-13T08:17:04;8.93;;;4.32;;
13238;SDS011;6686;51.292;4.166;2023-07-13T08:19:50;11.73;;;4.57;;
13238;SDS011;6686;51.292;4.166;2023-07-13T08:22:37;9.80;;;4.67;;
13238;SDS011;6686;51.292;4.166;2023-07-13T08:25:23;8.80;;;3.73;;
13238;SDS011;6686;51.292;4.166;2023-07-13T08:28:08;9.15;;;4.32;;
13238;SDS011;6686;51.292;4.166;2023-07-13T08:30:54;7.50;;;3.37;;
13238;SDS011;6686;51.292;4.166;2023-07-13T08:33:40;8.33;;;3.27;;
13238;SDS011;6686;51.292;4.166;2023-07-13T08:36:26;6.87;;;3.30;;
13238;SDS011;6686;51.292;4.166;2023-07-13T08:39:12;8.27;;;3.07;;
13238;SDS011;6686;51.292;4.166;2023-07-13T08:42:02;5.13;;;2.90;;
13238;SDS011;6686;51.292;4.166;2023-07-13T08:44:47;11.40;;;3.50;;
13238;SDS011;6686;51.292;4.166;2023-07-13T08:47:29;7.27;;;3.40;;
13238;SDS011;6686;51.292;4.166;2023-07-13T08:50:17;6.77;;;3.27;;
13238;SDS011;6686;51.292;4.166;2023-07-13T08:53:01;6.47;;;3.17;;
13238;SDS011;6686;51.292;4.166;2023-07-13T08:55:47;7.63;;;3.33;;
13238;SDS011;6686;51.292;4.166;2023-07-13T08:58:33;6.80;;;2.80;;
13238;SDS011;6686;51.292;4.166;2023-07-13T09:01:24;5.13;;;2.23;;
13238;SDS011;6686;51.292;4.166;2023-07-13T09:04:10;6.97;;;2.70;;
13238;SDS011;6686;51.292;4.166;2023-07-13T09:09:55;6.30;;;3.00;;
13238;SDS011;6686;51.292;4.166;2023-07-13T09:15:41;5.85;;;2.95;;
13238;SDS011;6686;51.292;4.166;2023-07-13T09:18:33;3.80;;;2.70;;
13238;SDS011;6686;51.292;4.166;2023-07-13T09:21:17;6.63;;;2.83;;
13238;SDS011;6686;51.292;4.166;2023-07-13T09:24:28;6.00;;;2.50;;
13238;SDS011;6686;51.292;4.166;2023-07-13T09:26:50;5.30;;;2.70;;
13238;SDS011;6686;51.292;4.166;2023-07-13T09:29:36;3.37;;;2.07;;
13238;SDS011;6686;51.292;4.166;2023-07-13T09:32:22;8.77;;;2.70;;
13238;SDS011;6686;51.292;4.166;2023-07-13T09:35:15;6.17;;;2.47;;
13238;SDS011;6686;51.292;4.166;2023-07-13T09:37:57;7.10;;;2.67;;
13238;SDS011;6686;51.292;4.166;2023-07-13T09:40:46;6.37;;;2.50;;
13238;SDS011;6686;51.292;4.166;2023-07-13T09:43:28;5.20;;;2.33;;
13238;SDS011;6686;51.292;4.166;2023-07-13T09:46:20;8.13;;;2.58;;
13238;SDS011;6686;51.292;4.166;2023-07-13T09:49:07;5.37;;;2.70;;
13238;SDS011;6686;51.292;4.166;2023-07-13T09:51:59;6.15;;;2.62;;
13238;SDS011;6686;51.292;4.166;2023-07-13T09:54:48;10.30;;;2.80;;
13238;SDS011;6686;51.292;4.166;2023-07-13T09:57:31;4.18;;;2.37;;
13238;SDS011;6686;51.292;4.166;2023-07-13T10:00:27;6.40;;;2.75;;
13238;SDS011;6686;51.292;4.166;2023-07-13T10:06:10;8.27;;;3.05;;
13238;SDS011;6686;51.292;4.166;2023-07-13T10:08:50;8.18;;;3.10;;
13238;SDS011;6686;51.292;4.166;2023-07-13T10:11:35;6.12;;;2.62;;
13238;SDS011;6686;51.292;4.166;2023-07-13T10:14:21;3.90;;;2.40;;
13238;SDS011;6686;51.292;4.166;2023-07-13T10:17:10;5.03;;;2.15;;
13238;SDS011;6686;51.292;4.166;2023-07-13T10:19:59;4.07;;;2.35;;
13238;SDS011;6686;51.292;4.166;2023-07-13T10:23:00;6.65;;;2.35;;
13238;SDS011;6686;51.292;4.166;2023-07-13T10:25:48;4.05;;;2.28;;
13238;SDS011;6686;51.292;4.166;2023-07-13T10:28:37;4.00;;;2.20;;
13238;SDS011;6686;51.292;4.166;2023-07-13T10:31:22;5.25;;;2.33;;
13238;SDS011;6686;51.292;4.166;2023-07-13T10:34:09;5.35;;;2.05;;
13238;SDS011;6686;51.292;4.166;2023-07-13T10:36:54;6.80;;;2.75;;
13238;SDS011;6686;51.292;4.166;2023-07-13T10:39:40;3.80;;;2.55;;
13238;SDS011;6686;51.292;4.166;2023-07-13T10:42:32;6.93;;;2.33;;
13238;SDS011;6686;51.292;4.166;2023-07-13T10:45:18;3.17;;;2.20;;
13238;SDS011;6686;51.292;4.166;2023-07-13T10:48:03;4.43;;;2.20;;
13238;SDS011;6686;51.292;4.166;2023-07-13T10:50:50;5.20;;;2.47;;
13238;SDS011;6686;51.292;4.166;2023-07-13T10:53:36;6.33;;;2.47;;
13238;SDS011;6686;51.292;4.166;2023-07-13T10:56:38;5.13;;;2.53;;
13238;SDS011;6686;51.292;4.166;2023-07-13T10:59:25;6.37;;;3.17;;
13238;SDS011;6686;51.292;4.166;2023-07-13T11:02:25;5.03;;;2.87;;
13238;SDS011;6686;51.292;4.166;2023-07-13T11:08:16;6.87;;;2.37;;
13238;SDS011;6686;51.292;4.166;2023-07-13T11:14:26;4.13;;;3.07;;
13238;SDS011;6686;51.292;4.166;2023-07-13T11:20:22;3.83;;;2.40;;
13238;SDS011;6686;51.292;4.166;2023-07-13T11:23:08;5.00;;;2.30;;
13238;SDS011;6686;51.292;4.166;2023-07-13T11:25:55;3.80;;;2.50;;
13238;SDS011;6686;51.292;4.166;2023-07-13T11:28:41;4.20;;;2.60;;
13238;SDS011;6686;51.292;4.166;2023-07-13T11:31:27;3.50;;;2.50;;
13238;SDS011;6686;51.292;4.166;2023-07-13T11:34:14;4.07;;;2.10;;
13238;SDS011;6686;51.292;4.166;2023-07-13T11:36:59;3.13;;;2.27;;
13238;SDS011;6686;51.292;4.166;2023-07-13T11:39:45;6.93;;;2.40;;
13238;SDS011;6686;51.292;4.166;2023-07-13T11:42:31;6.20;;;2.50;;
13238;SDS011;6686;51.292;4.166;2023-07-13T11:45:19;4.33;;;2.67;;
13238;SDS011;6686;51.292;4.166;2023-07-13T11:48:04;9.63;;;3.00;;
13238;SDS011;6686;51.292;4.166;2023-07-13T11:50:57;4.37;;;2.47;;
13238;SDS011;6686;51.292;4.166;2023-07-13T11:53:39;6.63;;;2.93;;
13238;SDS011;6686;51.292;4.166;2023-07-13T11:56:24;6.43;;;3.23;;
13238;SDS011;6686;51.292;4.166;2023-07-13T11:59:10;3.77;;;2.33;;
13238;SDS011;6686;51.292;4.166;2023-07-13T12:01:55;5.03;;;2.67;;
13238;SDS011;6686;51.292;4.166;2023-07-13T12:04:41;5.13;;;2.87;;
13238;SDS011;6686;51.292;4.166;2023-07-13T12:07:28;7.40;;;2.70;;
13238;SDS011;6686;51.292;4.166;2023-07-13T12:13:01;5.27;;;2.60;;
13238;SDS011;6686;51.292;4.166;2023-07-13T12:15:47;5.57;;;2.67;;
13238;SDS011;6686;51.292;4.166;2023-07-13T12:18:33;3.27;;;2.10;;
13238;SDS011;6686;51.292;4.166;2023-07-13T12:21:19;5.00;;;2.80;;
13238;SDS011;6686;51.292;4.166;2023-07-13T12:24:11;4.57;;;2.60;;
13238;SDS011;6686;51.292;4.166;2023-07-13T12:27:01;4.07;;;2.20;;
13238;SDS011;6686;51.292;4.166;2023-07-13T12:29:50;5.50;;;2.10;;
13238;SDS011;6686;51.292;4.166;2023-07-13T12:32:38;6.97;;;2.67;;
13238;SDS011;6686;51.292;4.166;2023-07-13T12:35:23;3.63;;;2.73;;
13238;SDS011;6686;51.292;4.166;2023-07-13T12:38:10;5.17;;;2.67;;
13238;SDS011;6686;51.292;4.166;2023-07-13T12:40:55;5.63;;;2.97;;
13238;SDS011;6686;51.292;4.166;2023-07-13T12:43:41;8.10;;;3.33;;
13238;SDS011;6686;51.292;4.166;2023-07-13T12:46:27;5.73;;;3.00;;
13238;SDS011;6686;51.292;4.166;2023-07-13T12:49:13;6.17;;;3.20;;
13238;SDS011;6686;51.292;4.166;2023-07-13T12:51:59;5.63;;;2.80;;
13238;SDS011;6686;51.292;4.166;2023-07-13T12:54:57;6.20;;;3.83;;
13238;SDS011;6686;51.292;4.166;2023-07-13T12:57:46;5.13;;;4.40;;
13238;SDS011;6686;51.292;4.166;2023-07-13T13:00:37;6.13;;;3.70;;
13238;SDS011;6686;51.292;4.166;2023-07-13T13:03:25;6.17;;;3.30;;
13238;SDS011;6686;51.292;4.166;2023-07-13T13:09:05;4.40;;;3.13;;
13238;SDS011;6686;51.292;4.166;2023-07-13T13:11:49;5.77;;;3.30;;
13238;SDS011;6686;51.292;4.166;2023-07-13T13:14:35;6.53;;;3.20;;
13238;SDS011;6686;51.292;4.166;2023-07-13T13:17:22;3.93;;;2.93;;
13238;SDS011;6686;51.292;4.166;2023-07-13T13:20:13;6.90;;;3.03;;
13238;SDS011;6686;51.292;4.166;2023-07-13T13:22:53;4.77;;;2.87;;
13238;SDS011;6686;51.292;4.166;2023-07-13T13:25:39;5.07;;;2.97;;
13238;SDS011;6686;51.292;4.166;2023-07-13T13:28:25;4.17;;;2.47;;
13238;SDS011;6686;51.292;4.166;2023-07-13T13:31:11;5.97;;;2.57;;
13238;SDS011;6686;51.292;4.166;2023-07-13T13:33:57;5.17;;;2.20;;
13238;SDS011;6686;51.292;4.166;2023-07-13T13:36:43;2.53;;;2.27;;
13238;SDS011;6686;51.292;4.166;2023-07-13T13:39:35;7.53;;;2.70;;
13238;SDS011;6686;51.292;4.166;2023-07-13T13:42:17;5.03;;;2.40;;
13238;SDS011;6686;51.292;4.166;2023-07-13T13:45:04;4.80;;;2.30;;
13238;SDS011;6686;51.292;4.166;2023-07-13T13:47:50;5.00;;;2.73;;
13238;SDS011;6686;51.292;4.166;2023-07-13T13:50:36;3.87;;;2.37;;
13238;SDS011;6686;51.292;4.166;2023-07-13T13:53:22;6.47;;;2.43;;
13238;SDS011;6686;51.292;4.166;2023-07-13T13:56:08;3.45;;;2.42;;
13238;SDS011;6686;51.292;4.166;2023-07-13T13:58:53;2.93;;;2.37;;
13238;SDS011;6686;51.292;4.166;2023-07-13T14:01:40;3.50;;;2.10;;
13238;SDS011;6686;51.292;4.166;2023-07-13T14:04:25;4.97;;;2.73;;
13238;SDS011;6686;51.292;4.166;2023-07-13T14:07:11;4.80;;;2.42;;
13238;SDS011;6686;51.292;4.166;2023-07-13T14:09:57;4.15;;;2.10;;
13238;SDS011;6686;51.292;4.166;2023-07-13T14:12:43;4.10;;;2.37;;
13238;SDS011;6686;51.292;4.166;2023-07-13T14:15:29;3.37;;;2.30;;
13238;SDS011;6686;51.292;4.166;2023-07-13T14:18:17;4.00;;;2.55;;
13238;SDS011;6686;51.292;4.166;2023-07-13T14:21:04;5.22;;;2.87;;
13238;SDS011;6686;51.292;4.166;2023-07-13T14:23:50;4.72;;;2.60;;
13238;SDS011;6686;51.292;4.166;2023-07-13T14:26:36;5.03;;;2.42;;
13238;SDS011;6686;51.292;4.166;2023-07-13T14:29:21;5.50;;;2.80;;
13238;SDS011;6686;51.292;4.166;2023-07-13T14:32:10;6.33;;;2.80;;
13238;SDS011;6686;51.292;4.166;2023-07-13T14:34:56;4.65;;;2.50;;
13238;SDS011;6686;51.292;4.166;2023-07-13T14:37:42;6.40;;;2.97;;
13238;SDS011;6686;51.292;4.166;2023-07-13T14:40:29;4.50;;;2.70;;
13238;SDS011;6686;51.292;4.166;2023-07-13T14:43:15;6.53;;;2.37;;
13238;SDS011;6686;51.292;4.166;2023-07-13T14:46:00;5.10;;;2.70;;
13238;SDS011;6686;51.292;4.166;2023-07-13T14:48:46;8.40;;;3.83;;
13238;SDS011;6686;51.292;4.166;2023-07-13T14:51:32;7.15;;;3.25;;
13238;SDS011;6686;51.292;4.166;2023-07-13T14:57:22;5.62;;;3.00;;
13238;SDS011;6686;51.292;4.166;2023-07-13T15:00:21;4.73;;;2.90;;
13238;SDS011;6686;51.292;4.166;2023-07-13T15:03:08;7.37;;;2.80;;
13238;SDS011;6686;51.292;4.166;2023-07-13T15:05:52;5.07;;;2.80;;
13238;SDS011;6686;51.292;4.166;2023-07-13T15:08:38;5.60;;;2.67;;
13238;SDS011;6686;51.292;4.166;2023-07-13T15:11:24;5.87;;;2.70;;
13238;SDS011;6686;51.292;4.166;2023-07-13T15:14:09;4.67;;;2.47;;
13238;SDS011;6686;51.292;4.166;2023-07-13T15:16:55;4.13;;;2.30;;
13238;SDS011;6686;51.292;4.166;2023-07-13T15:19:41;4.97;;;2.83;;
13238;SDS011;6686;51.292;4.166;2023-07-13T15:22:29;5.37;;;2.90;;
13238;SDS011;6686;51.292;4.166;2023-07-13T15:25:19;4.87;;;2.70;;
13238;SDS011;6686;51.292;4.166;2023-07-13T15:28:04;5.90;;;3.00;;
13238;SDS011;6686;51.292;4.166;2023-07-13T15:30:49;7.53;;;3.30;;
13238;SDS011;6686;51.292;4.166;2023-07-13T15:33:36;5.60;;;3.40;;
13238;SDS011;6686;51.292;4.166;2023-07-13T15:36:22;6.40;;;3.10;;
13238;SDS011;6686;51.292;4.166;2023-07-13T15:39:08;9.60;;;3.60;;
13238;SDS011;6686;51.292;4.166;2023-07-13T15:41:53;6.45;;;3.10;;
13238;SDS011;6686;51.292;4.166;2023-07-13T15:44:39;8.17;;;2.90;;
13238;SDS011;6686;51.292;4.166;2023-07-13T15:47:25;7.33;;;2.80;;
13238;SDS011;6686;51.292;4.166;2023-07-13T15:50:15;4.47;;;3.03;;
13238;SDS011;6686;51.292;4.166;2023-07-13T15:53:03;7.43;;;3.07;;
13238;SDS011;6686;51.292;4.166;2023-07-13T15:55:50;5.30;;;3.17;;
13238;SDS011;6686;51.292;4.166;2023-07-13T15:58:35;5.13;;;2.57;;
13238;SDS011;6686;51.292;4.166;2023-07-13T16:01:21;6.30;;;3.33;;
13238;SDS011;6686;51.292;4.166;2023-07-13T16:04:07;4.10;;;2.40;;
13238;SDS011;6686;51.292;4.166;2023-07-13T16:06:53;6.87;;;2.90;;
13238;SDS011;6686;51.292;4.166;2023-07-13T16:09:40;5.17;;;2.37;;
13238;SDS011;6686;51.292;4.166;2023-07-13T16:12:26;5.43;;;2.37;;
13238;SDS011;6686;51.292;4.166;2023-07-13T16:15:13;5.17;;;1.90;;
13238;SDS011;6686;51.292;4.166;2023-07-13T16:18:00;6.50;;;2.57;;
13238;SDS011;6686;51.292;4.166;2023-07-13T16:20:46;5.07;;;2.67;;
13238;SDS011;6686;51.292;4.166;2023-07-13T16:23:32;7.53;;;2.63;;
13238;SDS011;6686;51.292;4.166;2023-07-13T16:26:31;7.47;;;2.77;;
13238;SDS011;6686;51.292;4.166;2023-07-13T16:29:25;4.53;;;2.50;;
13238;SDS011;6686;51.292;4.166;2023-07-13T16:32:11;6.70;;;2.40;;
13238;SDS011;6686;51.292;4.166;2023-07-13T16:34:56;8.02;;;2.80;;
13238;SDS011;6686;51.292;4.166;2023-07-13T16:37:42;10.17;;;3.13;;
13238;SDS011;6686;51.292;4.166;2023-07-13T16:40:29;6.10;;;2.97;;
13238;SDS011;6686;51.292;4.166;2023-07-13T16:43:14;8.37;;;2.47;;
13238;SDS011;6686;51.292;4.166;2023-07-13T16:46:00;6.90;;;2.70;;
13238;SDS011;6686;51.292;4.166;2023-07-13T16:48:48;5.00;;;2.40;;
13238;SDS011;6686;51.292;4.166;2023-07-13T16:51:34;6.03;;;2.77;;
13238;SDS011;6686;51.292;4.166;2023-07-13T16:54:21;5.15;;;2.20;;
13238;SDS011;6686;51.292;4.166;2023-07-13T16:57:31;6.87;;;2.23;;
13238;SDS011;6686;51.292;4.166;2023-07-13T17:00:04;6.43;;;2.53;;
13238;SDS011;6686;51.292;4.166;2023-07-13T17:03:01;6.93;;;2.70;;
13238;SDS011;6686;51.292;4.166;2023-07-13T17:05:49;3.80;;;1.90;;
13238;SDS011;6686;51.292;4.166;2023-07-13T17:08:35;7.17;;;2.40;;
13238;SDS011;6686;51.292;4.166;2023-07-13T17:11:21;4.10;;;2.50;;
13238;SDS011;6686;51.292;4.166;2023-07-13T17:14:14;5.33;;;2.50;;
13238;SDS011;6686;51.292;4.166;2023-07-13T17:17:37;4.87;;;2.17;;
13238;SDS011;6686;51.292;4.166;2023-07-13T17:20:09;5.87;;;2.23;;
13238;SDS011;6686;51.292;4.166;2023-07-13T17:22:56;5.43;;;2.10;;